sensor_id;sensor_type;location;lat;lon;timestamp;P1;durP1;ratioP1;P2;durP2;ratioP2
52184;SDS011;38160;52.876;18.778;2023-03-01T12:21:59;42.50;;;23.60;;
52184;SDS011;38160;52.876;18.778;2023-03-01T12:24:57;41.30;;;24.30;;
52184;SDS011;38160;52.876;18.778;2023-03-01T12:31:04;33.60;;;20.10;;
52184;SDS011;38160;52.876;18.778;2023-03-01T12:33:57;31.50;;;18.60;;
52184;SDS011;38160;52.876;18.778;2023-03-01T12:43:24;35.80;;;20.60;;
52184;SDS011;38160;52.876;18.778;2023-03-01T12:46:13;32.00;;;18.60;;
52184;SDS011;38160;52.876;18.778;2023-03-01T12:49:02;32.70;;;19.10;;
52184;SDS011;38160;52.876;18.778;2023-03-01T12:51:46;32.40;;;19.10;;
52184;SDS011;38160;52.876;18.778;2023-03-01T12:54:31;35.60;;;18.40;;
52184;SDS011;38160;52.876;18.778;2023-03-01T12:57:12;30.20;;;17.70;;
52184;SDS011;38160;52.876;18.778;2023-03-01T12:59:59;28.30;;;17.70;;
52184;SDS011;38160;52.876;18.778;2023-03-01T13:02:45;30.20;;;18.20;;
52184;SDS011;38160;52.876;18.778;2023-03-01T13:05:31;29.40;;;18.40;;
52184;SDS011;38160;52.876;18.778;2023-03-01T13:08:16;28.70;;;18.60;;
52184;SDS011;38160;52.876;18.778;2023-03-01T13:11:14;32.60;;;18.20;;
52184;SDS011;38160;52.876;18.778;2023-03-01T13:20:16;30.50;;;18.00;;
52184;SDS011;38160;52.876;18.778;2023-03-01T13:23:01;34.70;;;18.50;;
52184;SDS011;38160;52.876;18.778;2023-03-01T13:28:56;32.10;;;20.00;;
52184;SDS011;38160;52.876;18.778;2023-03-01T13:34:54;32.40;;;18.50;;
52184;SDS011;38160;52.876;18.778;2023-03-01T13:37:35;33.60;;;18.10;;
52184;SDS011;38160;52.876;18.778;2023-03-01T13:43:28;32.50;;;18.60;;
52184;SDS011;38160;52.876;18.778;2023-03-01T13:46:09;29.00;;;18.70;;
52184;SDS011;38160;52.876;18.778;2023-03-01T13:48:50;31.80;;;19.50;;
52184;SDS011;38160;52.876;18.778;2023-03-01T13:51:29;36.60;;;20.10;;
52184;SDS011;38160;52.876;18.778;2023-03-01T13:54:09;31.30;;;18.70;;
52184;SDS011;38160;52.876;18.778;2023-03-01T13:56:48;33.80;;;18.40;;
52184;SDS011;38160;52.876;18.778;2023-03-01T13:59:25;36.60;;;20.30;;
52184;SDS011;38160;52.876;18.778;2023-03-01T14:02:10;31.40;;;20.10;;
52184;SDS011;38160;52.876;18.778;2023-03-01T14:04:56;41.00;;;18.70;;
52184;SDS011;38160;52.876;18.778;2023-03-01T14:07:34;37.40;;;20.00;;
52184;SDS011;38160;52.876;18.778;2023-03-01T14:10:14;31.00;;;20.10;;
52184;SDS011;38160;52.876;18.778;2023-03-01T14:12:51;34.20;;;19.10;;
52184;SDS011;38160;52.876;18.778;2023-03-01T14:15:36;30.70;;;18.10;;
52184;SDS011;38160;52.876;18.778;2023-03-01T14:18:22;31.50;;;19.30;;
52184;SDS011;38160;52.876;18.778;2023-03-01T14:21:08;34.10;;;20.80;;
52184;SDS011;38160;52.876;18.778;2023-03-01T14:23:47;35.50;;;19.00;;
52184;SDS011;38160;52.876;18.778;2023-03-01T14:26:24;30.40;;;19.50;;
52184;SDS011;38160;52.876;18.778;2023-03-01T14:29:01;29.80;;;19.00;;
52184;SDS011;38160;52.876;18.778;2023-03-01T14:31:38;30.80;;;19.30;;
52184;SDS011;38160;52.876;18.778;2023-03-01T14:34:18;31.30;;;18.60;;
52184;SDS011;38160;52.876;18.778;2023-03-01T14:36:56;30.50;;;19.20;;
52184;SDS011;38160;52.876;18.778;2023-03-01T14:39:43;28.30;;;17.50;;
52184;SDS011;38160;52.876;18.778;2023-03-01T14:42:20;30.10;;;18.00;;
52184;SDS011;38160;52.876;18.778;2023-03-01T14:45:00;30.00;;;19.00;;
52184;SDS011;38160;52.876;18.778;2023-03-01T14:47:40;31.50;;;18.90;;
52184;SDS011;38160;52.876;18.778;2023-03-01T14:50:21;31.60;;;20.20;;
52184;SDS011;38160;52.876;18.778;2023-03-01T14:52:59;33.70;;;20.30;;
52184;SDS011;38160;52.876;18.778;2023-03-01T14:55:38;30.20;;;20.20;;
52184;SDS011;38160;52.876;18.778;2023-03-01T14:58:20;36.80;;;19.30;;
52184;SDS011;38160;52.876;18.778;2023-03-01T15:00:57;34.20;;;19.80;;
52184;SDS011;38160;52.876;18.778;2023-03-01T15:03:36;36.70;;;20.00;;
52184;SDS011;38160;52.876;18.778;2023-03-01T15:06:17;31.70;;;19.30;;
52184;SDS011;38160;52.876;18.778;2023-03-01T15:08:56;35.60;;;21.80;;
52184;SDS011;38160;52.876;18.778;2023-03-01T15:11:32;33.00;;;20.30;;
52184;SDS011;38160;52.876;18.778;2023-03-01T15:14:28;32.20;;;20.60;;
52184;SDS011;38160;52.876;18.778;2023-03-01T15:17:20;31.00;;;19.90;;
52184;SDS011;38160;52.876;18.778;2023-03-01T15:20:04;33.20;;;20.10;;
52184;SDS011;38160;52.876;18.778;2023-03-01T15:22:50;31.60;;;20.80;;
52184;SDS011;38160;52.876;18.778;2023-03-01T15:25:27;35.60;;;21.40;;
52184;SDS011;38160;52.876;18.778;2023-03-01T15:28:04;38.30;;;20.80;;
52184;SDS011;38160;52.876;18.778;2023-03-01T15:30:54;40.10;;;20.60;;
52184;SDS011;38160;52.876;18.778;2023-03-01T15:33:34;31.90;;;20.60;;
52184;SDS011;38160;52.876;18.778;2023-03-01T15:42:05;39.30;;;21.10;;
52184;SDS011;38160;52.876;18.778;2023-03-01T15:44:43;39.20;;;20.70;;
52184;SDS011;38160;52.876;18.778;2023-03-01T15:47:29;34.30;;;20.80;;
52184;SDS011;38160;52.876;18.778;2023-03-01T15:50:11;38.10;;;21.00;;
52184;SDS011;38160;52.876;18.778;2023-03-01T15:52:52;50.40;;;24.20;;
52184;SDS011;38160;52.876;18.778;2023-03-01T15:55:30;46.80;;;22.40;;
52184;SDS011;38160;52.876;18.778;2023-03-01T15:58:10;40.90;;;22.60;;
52184;SDS011;38160;52.876;18.778;2023-03-01T16:00:49;48.30;;;23.90;;
52184;SDS011;38160;52.876;18.778;2023-03-01T16:03:28;55.10;;;25.10;;
52184;SDS011;38160;52.876;18.778;2023-03-01T16:06:05;45.40;;;23.90;;
52184;SDS011;38160;52.876;18.778;2023-03-01T16:08:42;55.20;;;28.10;;
52184;SDS011;38160;52.876;18.778;2023-03-01T16:11:19;47.10;;;28.90;;
52184;SDS011;38160;52.876;18.778;2023-03-01T16:13:55;56.00;;;34.00;;
52184;SDS011;38160;52.876;18.778;2023-03-01T16:16:31;48.50;;;30.10;;
52184;SDS011;38160;52.876;18.778;2023-03-01T16:19:08;61.70;;;36.90;;
52184;SDS011;38160;52.876;18.778;2023-03-01T16:21:44;52.20;;;33.70;;
52184;SDS011;38160;52.876;18.778;2023-03-01T16:24:23;38.90;;;24.60;;
52184;SDS011;38160;52.876;18.778;2023-03-01T16:26:59;35.70;;;22.80;;
52184;SDS011;38160;52.876;18.778;2023-03-01T16:29:35;60.60;;;34.80;;
52184;SDS011;38160;52.876;18.778;2023-03-01T16:32:11;54.70;;;30.40;;
52184;SDS011;38160;52.876;18.778;2023-03-01T16:34:47;51.50;;;30.30;;
52184;SDS011;38160;52.876;18.778;2023-03-01T16:37:23;59.70;;;33.90;;
52184;SDS011;38160;52.876;18.778;2023-03-01T16:39:59;66.50;;;36.40;;
52184;SDS011;38160;52.876;18.778;2023-03-01T16:42:37;70.80;;;40.90;;
52184;SDS011;38160;52.876;18.778;2023-03-01T16:45:13;67.10;;;43.80;;
52184;SDS011;38160;52.876;18.778;2023-03-01T16:47:49;62.90;;;39.40;;
52184;SDS011;38160;52.876;18.778;2023-03-01T16:50:25;62.80;;;39.70;;
52184;SDS011;38160;52.876;18.778;2023-03-01T16:53:02;60.60;;;36.60;;
52184;SDS011;38160;52.876;18.778;2023-03-01T16:55:38;62.40;;;36.30;;
52184;SDS011;38160;52.876;18.778;2023-03-01T16:58:18;58.50;;;33.60;;
52184;SDS011;38160;52.876;18.778;2023-03-01T17:00:54;65.50;;;38.30;;
52184;SDS011;38160;52.876;18.778;2023-03-01T17:03:31;63.00;;;37.80;;
52184;SDS011;38160;52.876;18.778;2023-03-01T17:06:07;64.60;;;37.90;;
52184;SDS011;38160;52.876;18.778;2023-03-01T17:08:45;71.00;;;37.30;;
52184;SDS011;38160;52.876;18.778;2023-03-01T17:11:21;60.70;;;36.40;;
52184;SDS011;38160;52.876;18.778;2023-03-01T17:13:57;59.30;;;35.50;;
52184;SDS011;38160;52.876;18.778;2023-03-01T17:16:33;59.50;;;37.00;;
52184;SDS011;38160;52.876;18.778;2023-03-01T17:19:09;60.50;;;38.40;;
52184;SDS011;38160;52.876;18.778;2023-03-01T17:21:50;59.30;;;38.70;;
52184;SDS011;38160;52.876;18.778;2023-03-01T17:24:26;66.80;;;41.80;;
52184;SDS011;38160;52.876;18.778;2023-03-01T17:27:03;65.80;;;40.60;;
52184;SDS011;38160;52.876;18.778;2023-03-01T17:29:39;61.90;;;39.70;;
52184;SDS011;38160;52.876;18.778;2023-03-01T17:32:15;62.80;;;39.20;;
52184;SDS011;38160;52.876;18.778;2023-03-01T17:34:51;65.60;;;39.40;;
52184;SDS011;38160;52.876;18.778;2023-03-01T17:37:27;61.40;;;37.00;;
52184;SDS011;38160;52.876;18.778;2023-03-01T17:40:04;59.60;;;38.00;;
52184;SDS011;38160;52.876;18.778;2023-03-01T17:42:41;76.50;;;44.90;;
52184;SDS011;38160;52.876;18.778;2023-03-01T17:45:17;66.80;;;43.30;;
52184;SDS011;38160;52.876;18.778;2023-03-01T17:47:53;67.70;;;44.00;;
52184;SDS011;38160;52.876;18.778;2023-03-01T17:50:29;72.50;;;41.40;;
52184;SDS011;38160;52.876;18.778;2023-03-01T17:53:05;89.00;;;49.30;;
52184;SDS011;38160;52.876;18.778;2023-03-01T17:55:42;81.80;;;47.00;;
52184;SDS011;38160;52.876;18.778;2023-03-01T17:58:21;68.20;;;42.10;;
52184;SDS011;38160;52.876;18.778;2023-03-01T18:01:05;62.30;;;40.20;;
52184;SDS011;38160;52.876;18.778;2023-03-01T18:03:42;58.20;;;36.40;;
52184;SDS011;38160;52.876;18.778;2023-03-01T18:06:20;55.00;;;34.30;;
52184;SDS011;38160;52.876;18.778;2023-03-01T18:08:57;59.70;;;36.30;;
52184;SDS011;38160;52.876;18.778;2023-03-01T18:11:34;60.80;;;39.20;;
52184;SDS011;38160;52.876;18.778;2023-03-01T18:14:10;60.20;;;37.40;;
52184;SDS011;38160;52.876;18.778;2023-03-01T18:16:46;63.40;;;38.30;;
52184;SDS011;38160;52.876;18.778;2023-03-01T18:19:22;64.40;;;37.70;;
52184;SDS011;38160;52.876;18.778;2023-03-01T18:21:57;64.40;;;38.60;;
52184;SDS011;38160;52.876;18.778;2023-03-01T18:24:34;69.00;;;39.40;;
52184;SDS011;38160;52.876;18.778;2023-03-01T18:27:10;64.50;;;38.60;;
52184;SDS011;38160;52.876;18.778;2023-03-01T18:29:46;66.60;;;39.00;;
52184;SDS011;38160;52.876;18.778;2023-03-01T18:32:23;68.30;;;38.90;;
52184;SDS011;38160;52.876;18.778;2023-03-01T18:34:59;67.80;;;40.10;;
52184;SDS011;38160;52.876;18.778;2023-03-01T18:37:35;60.60;;;38.50;;
52184;SDS011;38160;52.876;18.778;2023-03-01T18:40:11;65.90;;;39.40;;
52184;SDS011;38160;52.876;18.778;2023-03-01T18:42:47;72.40;;;39.40;;
52184;SDS011;38160;52.876;18.778;2023-03-01T18:45:23;70.70;;;39.90;;
52184;SDS011;38160;52.876;18.778;2023-03-01T18:47:59;69.30;;;40.20;;
52184;SDS011;38160;52.876;18.778;2023-03-01T18:50:36;68.10;;;39.70;;
52184;SDS011;38160;52.876;18.778;2023-03-01T18:53:12;69.30;;;39.70;;
52184;SDS011;38160;52.876;18.778;2023-03-01T18:55:48;74.90;;;41.60;;
52184;SDS011;38160;52.876;18.778;2023-03-01T18:58:24;79.60;;;43.10;;
52184;SDS011;38160;52.876;18.778;2023-03-01T19:01:00;68.40;;;42.50;;
52184;SDS011;38160;52.876;18.778;2023-03-01T19:03:39;67.70;;;41.10;;
52184;SDS011;38160;52.876;18.778;2023-03-01T19:06:15;66.40;;;39.80;;
52184;SDS011;38160;52.876;18.778;2023-03-01T19:08:53;69.30;;;41.30;;
52184;SDS011;38160;52.876;18.778;2023-03-01T19:11:29;69.90;;;40.40;;
52184;SDS011;38160;52.876;18.778;2023-03-01T19:14:08;66.30;;;39.70;;
52184;SDS011;38160;52.876;18.778;2023-03-01T19:16:44;69.40;;;40.30;;
52184;SDS011;38160;52.876;18.778;2023-03-01T19:19:21;454.90;;;201.70;;
52184;SDS011;38160;52.876;18.778;2023-03-01T19:21:59;457.20;;;209.20;;
52184;SDS011;38160;52.876;18.778;2023-03-01T19:24:35;251.90;;;111.90;;
52184;SDS011;38160;52.876;18.778;2023-03-01T19:27:11;139.70;;;68.30;;
52184;SDS011;38160;52.876;18.778;2023-03-01T19:29:47;102.20;;;54.40;;
52184;SDS011;38160;52.876;18.778;2023-03-01T19:32:23;80.80;;;45.30;;
52184;SDS011;38160;52.876;18.778;2023-03-01T19:34:59;138.20;;;67.90;;
52184;SDS011;38160;52.876;18.778;2023-03-01T19:37:35;107.30;;;55.10;;
52184;SDS011;38160;52.876;18.778;2023-03-01T19:40:12;114.20;;;59.00;;
52184;SDS011;38160;52.876;18.778;2023-03-01T19:42:48;113.80;;;59.20;;
52184;SDS011;38160;52.876;18.778;2023-03-01T19:45:24;108.00;;;54.80;;
52184;SDS011;38160;52.876;18.778;2023-03-01T19:48:00;117.50;;;65.20;;
52184;SDS011;38160;52.876;18.778;2023-03-01T19:50:36;113.90;;;67.60;;
52184;SDS011;38160;52.876;18.778;2023-03-01T19:53:17;111.10;;;65.50;;
52184;SDS011;38160;52.876;18.778;2023-03-01T19:55:57;109.40;;;63.50;;
52184;SDS011;38160;52.876;18.778;2023-03-01T19:58:33;108.50;;;60.90;;
52184;SDS011;38160;52.876;18.778;2023-03-01T20:01:14;115.30;;;63.80;;
52184;SDS011;38160;52.876;18.778;2023-03-01T20:03:52;114.90;;;68.70;;
52184;SDS011;38160;52.876;18.778;2023-03-01T20:06:28;116.70;;;70.90;;
52184;SDS011;38160;52.876;18.778;2023-03-01T20:09:05;108.70;;;66.30;;
52184;SDS011;38160;52.876;18.778;2023-03-01T20:11:42;124.30;;;67.90;;
52184;SDS011;38160;52.876;18.778;2023-03-01T20:14:18;100.60;;;52.10;;
52184;SDS011;38160;52.876;18.778;2023-03-01T20:16:54;115.70;;;63.60;;
52184;SDS011;38160;52.876;18.778;2023-03-01T20:19:30;106.00;;;62.70;;
52184;SDS011;38160;52.876;18.778;2023-03-01T20:22:06;133.70;;;71.10;;
52184;SDS011;38160;52.876;18.778;2023-03-01T20:24:42;135.50;;;71.20;;
52184;SDS011;38160;52.876;18.778;2023-03-01T20:27:18;138.10;;;73.20;;
52184;SDS011;38160;52.876;18.778;2023-03-01T20:29:54;199.70;;;91.30;;
52184;SDS011;38160;52.876;18.778;2023-03-01T20:32:30;159.50;;;77.20;;
52184;SDS011;38160;52.876;18.778;2023-03-01T20:35:08;124.00;;;66.30;;
52184;SDS011;38160;52.876;18.778;2023-03-01T20:37:45;143.30;;;73.30;;
52184;SDS011;38160;52.876;18.778;2023-03-01T20:40:21;137.90;;;71.40;;
52184;SDS011;38160;52.876;18.778;2023-03-01T20:43:00;115.00;;;59.90;;
52184;SDS011;38160;52.876;18.778;2023-03-01T20:45:37;109.30;;;58.80;;
52184;SDS011;38160;52.876;18.778;2023-03-01T20:48:14;131.20;;;66.00;;
52184;SDS011;38160;52.876;18.778;2023-03-01T20:53:30;122.10;;;63.70;;
52184;SDS011;38160;52.876;18.778;2023-03-01T20:56:07;127.90;;;66.40;;
52184;SDS011;38160;52.876;18.778;2023-03-01T20:58:44;116.90;;;65.30;;
52184;SDS011;38160;52.876;18.778;2023-03-01T21:01:20;134.50;;;67.90;;
52184;SDS011;38160;52.876;18.778;2023-03-01T21:03:57;124.10;;;66.60;;
52184;SDS011;38160;52.876;18.778;2023-03-01T21:06:33;125.10;;;65.30;;
52184;SDS011;38160;52.876;18.778;2023-03-01T21:09:11;146.90;;;72.90;;
52184;SDS011;38160;52.876;18.778;2023-03-01T21:11:49;135.80;;;69.90;;
52184;SDS011;38160;52.876;18.778;2023-03-01T21:14:25;138.40;;;69.60;;
52184;SDS011;38160;52.876;18.778;2023-03-01T21:17:01;134.70;;;67.00;;
52184;SDS011;38160;52.876;18.778;2023-03-01T21:19:37;127.80;;;66.10;;
52184;SDS011;38160;52.876;18.778;2023-03-01T21:22:16;128.20;;;61.80;;
52184;SDS011;38160;52.876;18.778;2023-03-01T21:24:52;115.70;;;58.50;;
52184;SDS011;38160;52.876;18.778;2023-03-01T21:27:28;107.30;;;57.20;;
52184;SDS011;38160;52.876;18.778;2023-03-01T21:30:12;113.90;;;57.00;;
52184;SDS011;38160;52.876;18.778;2023-03-01T21:32:48;111.60;;;56.70;;
52184;SDS011;38160;52.876;18.778;2023-03-01T21:35:24;111.10;;;58.20;;
52184;SDS011;38160;52.876;18.778;2023-03-01T21:38:01;113.00;;;57.70;;
52184;SDS011;38160;52.876;18.778;2023-03-01T21:40:37;110.10;;;58.00;;
52184;SDS011;38160;52.876;18.778;2023-03-01T21:43:13;103.90;;;56.80;;
52184;SDS011;38160;52.876;18.778;2023-03-01T21:45:49;112.60;;;55.00;;
52184;SDS011;38160;52.876;18.778;2023-03-01T21:48:25;115.40;;;55.90;;
52184;SDS011;38160;52.876;18.778;2023-03-01T21:51:01;109.50;;;56.00;;
52184;SDS011;38160;52.876;18.778;2023-03-01T21:53:38;103.70;;;54.10;;
52184;SDS011;38160;52.876;18.778;2023-03-01T21:56:15;101.90;;;53.90;;
52184;SDS011;38160;52.876;18.778;2023-03-01T21:58:53;94.70;;;52.70;;
52184;SDS011;38160;52.876;18.778;2023-03-01T22:01:29;93.20;;;49.90;;
52184;SDS011;38160;52.876;18.778;2023-03-01T22:04:06;108.30;;;55.70;;
52184;SDS011;38160;52.876;18.778;2023-03-01T22:06:45;106.70;;;55.80;;
52184;SDS011;38160;52.876;18.778;2023-03-01T22:09:21;96.00;;;51.00;;
52184;SDS011;38160;52.876;18.778;2023-03-01T22:11:58;94.30;;;52.80;;
52184;SDS011;38160;52.876;18.778;2023-03-01T22:14:34;100.80;;;51.20;;
52184;SDS011;38160;52.876;18.778;2023-03-01T22:17:10;101.20;;;52.70;;
52184;SDS011;38160;52.876;18.778;2023-03-01T22:19:46;94.50;;;52.00;;
52184;SDS011;38160;52.876;18.778;2023-03-01T22:22:22;94.80;;;52.10;;
52184;SDS011;38160;52.876;18.778;2023-03-01T22:24:58;102.90;;;52.90;;
52184;SDS011;38160;52.876;18.778;2023-03-01T22:27:34;96.60;;;51.20;;
52184;SDS011;38160;52.876;18.778;2023-03-01T22:33:05;89.50;;;50.50;;
52184;SDS011;38160;52.876;18.778;2023-03-01T22:35:41;95.20;;;51.80;;
52184;SDS011;38160;52.876;18.778;2023-03-01T22:38:17;105.70;;;54.30;;
52184;SDS011;38160;52.876;18.778;2023-03-01T22:40:57;96.60;;;52.20;;
52184;SDS011;38160;52.876;18.778;2023-03-01T22:43:34;115.90;;;56.50;;
52184;SDS011;38160;52.876;18.778;2023-03-01T22:46:21;118.40;;;56.60;;
52184;SDS011;38160;52.876;18.778;2023-03-01T22:49:18;107.90;;;57.40;;
52184;SDS011;38160;52.876;18.778;2023-03-01T22:51:54;108.10;;;54.50;;
52184;SDS011;38160;52.876;18.778;2023-03-01T22:54:30;115.00;;;56.20;;
52184;SDS011;38160;52.876;18.778;2023-03-01T22:57:06;110.00;;;57.60;;
52184;SDS011;38160;52.876;18.778;2023-03-01T22:59:42;119.50;;;60.20;;
52184;SDS011;38160;52.876;18.778;2023-03-01T23:02:18;110.00;;;58.20;;
52184;SDS011;38160;52.876;18.778;2023-03-01T23:04:55;114.10;;;58.30;;
52184;SDS011;38160;52.876;18.778;2023-03-01T23:07:31;103.70;;;54.70;;
52184;SDS011;38160;52.876;18.778;2023-03-01T23:10:08;95.00;;;50.40;;
52184;SDS011;38160;52.876;18.778;2023-03-01T23:12:45;100.60;;;52.90;;
52184;SDS011;38160;52.876;18.778;2023-03-01T23:15:21;99.50;;;53.50;;
52184;SDS011;38160;52.876;18.778;2023-03-01T23:18:00;95.90;;;52.80;;
52184;SDS011;38160;52.876;18.778;2023-03-01T23:20:36;104.20;;;52.70;;
52184;SDS011;38160;52.876;18.778;2023-03-01T23:23:13;111.50;;;54.20;;
52184;SDS011;38160;52.876;18.778;2023-03-01T23:25:52;95.10;;;52.20;;
52184;SDS011;38160;52.876;18.778;2023-03-01T23:28:30;91.30;;;48.70;;
52184;SDS011;38160;52.876;18.778;2023-03-01T23:31:07;94.60;;;52.40;;
52184;SDS011;38160;52.876;18.778;2023-03-01T23:33:45;95.70;;;51.20;;
52184;SDS011;38160;52.876;18.778;2023-03-01T23:36:22;90.60;;;51.60;;
52184;SDS011;38160;52.876;18.778;2023-03-01T23:39:01;96.80;;;51.00;;
52184;SDS011;38160;52.876;18.778;2023-03-01T23:41:39;93.30;;;47.70;;
52184;SDS011;38160;52.876;18.778;2023-03-01T23:44:17;93.00;;;50.50;;
52184;SDS011;38160;52.876;18.778;2023-03-01T23:46:54;81.90;;;45.40;;
52184;SDS011;38160;52.876;18.778;2023-03-01T23:49:30;86.20;;;47.50;;
52184;SDS011;38160;52.876;18.778;2023-03-01T23:52:06;91.90;;;49.20;;
52184;SDS011;38160;52.876;18.778;2023-03-01T23:54:44;94.30;;;48.40;;
52184;SDS011;38160;52.876;18.778;2023-03-01T23:57:20;87.30;;;49.80;;
52184;SDS011;38160;52.876;18.778;2023-03-01T23:59:56;94.10;;;52.80;;
